createdAt,value
2022-12-10T00:01:11.887Z,-3.68
2022-12-10T00:03:38.505Z,-3.75
2022-12-10T00:06:06.951Z,-3.73
2022-12-10T00:08:34.892Z,-3.75
2022-12-10T00:11:04.231Z,-3.80
2022-12-10T00:13:31.164Z,-3.82
2022-12-10T00:16:00.854Z,-3.77
2022-12-10T00:18:27.598Z,-3.80
2022-12-10T00:20:55.316Z,-3.80
2022-12-10T00:23:23.560Z,-3.79
2022-12-10T00:25:50.593Z,-3.76
2022-12-10T00:28:17.163Z,-3.71
2022-12-10T00:30:43.814Z,-3.72
2022-12-10T00:33:10.767Z,-3.68
2022-12-10T00:35:37.673Z,-3.68
2022-12-10T00:38:04.520Z,-3.70
2022-12-10T00:40:31.108Z,-3.66
2022-12-10T00:42:57.710Z,-3.69
2022-12-10T00:45:24.285Z,-3.70
2022-12-10T00:47:50.917Z,-3.64
2022-12-10T00:50:17.492Z,-3.66
2022-12-10T00:52:44.089Z,-3.63
2022-12-10T00:55:10.715Z,-3.57
2022-12-10T00:57:37.361Z,-3.60
2022-12-10T01:00:05.065Z,-3.56
2022-12-10T01:02:31.814Z,-3.46
2022-12-10T01:04:58.534Z,-3.40
2022-12-10T01:07:25.164Z,-3.35
2022-12-10T01:09:51.754Z,-3.39
2022-12-10T01:12:18.416Z,-3.42
2022-12-10T01:14:45.043Z,-3.45
2022-12-10T01:17:11.617Z,-3.47
2022-12-10T01:19:38.275Z,-3.48
2022-12-10T01:22:04.960Z,-3.44
2022-12-10T01:24:31.719Z,-3.44
2022-12-10T01:26:59.109Z,-3.40
2022-12-10T01:29:27.589Z,-3.41
2022-12-10T01:31:55.901Z,-3.33
2022-12-10T01:34:22.802Z,-3.40
2022-12-10T01:36:53.123Z,-3.41
2022-12-10T01:39:21.595Z,-3.41
2022-12-10T01:41:56.780Z,-3.41
2022-12-10T01:44:23.275Z,-3.41
2022-12-10T01:46:55.394Z,-3.38
2022-12-10T01:49:24.748Z,-3.35
2022-12-10T01:51:53.844Z,-3.39
2022-12-10T01:54:26.044Z,-3.39
2022-12-10T01:56:59.465Z,-3.39
2022-12-10T01:59:27.099Z,-3.37
2022-12-10T02:02:09.448Z,-3.34
2022-12-10T02:05:03.613Z,-3.30
2022-12-10T02:07:58.436Z,-3.35
2022-12-10T02:10:51.115Z,-3.38
2022-12-10T02:13:44.199Z,-3.33
2022-12-10T02:16:25.053Z,-3.36
2022-12-10T02:19:01.419Z,-3.39
2022-12-10T02:21:35.014Z,-3.42
2022-12-10T02:24:05.371Z,-3.38
2022-12-10T02:27:01.650Z,-3.36
2022-12-10T02:29:30.910Z,-3.33
2022-12-10T02:32:03.224Z,-3.34
2022-12-10T02:34:35.514Z,-3.34
2022-12-10T02:37:08.583Z,-3.34
2022-12-10T02:39:40.284Z,-3.32
2022-12-10T02:42:08.467Z,-3.31
2022-12-10T02:44:37.449Z,-3.26
2022-12-10T02:47:06.299Z,-3.24
2022-12-10T02:49:37.893Z,-3.30
2022-12-10T02:52:13.773Z,-3.31
2022-12-10T02:54:45.664Z,-3.31
2022-12-10T02:57:31.453Z,-3.30
2022-12-10T03:00:08.000Z,-3.26
2022-12-10T03:02:47.350Z,-3.22
2022-12-10T03:05:23.322Z,-3.28
2022-12-10T03:07:58.131Z,-3.24
2022-12-10T03:10:49.620Z,-3.20
2022-12-10T03:13:17.495Z,-3.25
2022-12-10T03:15:45.401Z,-3.29
2022-12-10T03:18:13.474Z,-3.26
2022-12-10T03:20:42.947Z,-3.23
2022-12-10T03:23:12.360Z,-3.20
2022-12-10T03:25:39.768Z,-3.22
2022-12-10T03:28:07.798Z,-3.24
2022-12-10T03:30:35.065Z,-3.20
2022-12-10T03:33:02.359Z,-3.19
2022-12-10T03:35:28.998Z,-3.16
2022-12-10T03:37:56.256Z,-3.14
2022-12-10T03:40:24.440Z,-3.11
2022-12-10T03:42:51.115Z,-3.12
2022-12-10T03:45:17.878Z,-3.17
2022-12-10T03:47:44.822Z,-3.20
2022-12-10T03:50:11.709Z,-3.21
2022-12-10T03:52:38.418Z,-3.21
2022-12-10T03:55:05.469Z,-3.22
2022-12-10T03:57:32.127Z,-3.19
2022-12-10T03:59:58.711Z,-3.15
2022-12-10T04:02:25.286Z,-3.12
2022-12-10T04:04:51.950Z,-3.12
2022-12-10T04:07:18.629Z,-3.12
2022-12-10T04:09:45.211Z,-3.13
2022-12-10T04:12:11.776Z,-3.13
2022-12-10T04:14:56.779Z,-3.10
2022-12-10T04:17:23.383Z,-3.04
2022-12-10T04:19:49.892Z,-3.03
2022-12-10T04:22:35.094Z,-3.11
2022-12-10T04:25:20.416Z,-3.11
2022-12-10T04:27:47.741Z,-3.08
2022-12-10T04:30:14.372Z,-3.12
2022-12-10T04:32:41.023Z,-3.12
2022-12-10T04:35:08.048Z,-3.09
2022-12-10T04:37:34.652Z,-3.06
2022-12-10T04:40:01.313Z,-3.04
2022-12-10T04:42:28.006Z,-3.00
2022-12-10T04:44:54.642Z,-2.98
2022-12-10T04:47:21.242Z,-2.93
2022-12-10T04:49:47.807Z,-2.96
2022-12-10T04:52:15.778Z,-2.97
2022-12-10T04:54:43.018Z,-2.97
2022-12-10T04:57:10.507Z,-2.97
2022-12-10T04:59:37.532Z,-2.93
2022-12-10T05:02:05.377Z,-2.95
2022-12-10T05:04:32.113Z,-2.92
2022-12-10T05:06:58.702Z,-2.89
2022-12-10T05:09:25.662Z,-2.89
2022-12-10T05:11:52.176Z,-2.88
2022-12-10T05:14:18.776Z,-2.85
2022-12-10T05:16:45.570Z,-2.84
2022-12-10T05:19:12.704Z,-2.83
2022-12-10T05:21:58.151Z,-2.83
2022-12-10T05:24:25.127Z,-2.84
2022-12-10T05:26:52.435Z,-2.79
2022-12-10T05:29:19.934Z,-2.79
2022-12-10T05:31:47.048Z,-2.75
2022-12-10T05:34:13.704Z,-2.75
2022-12-10T05:36:40.296Z,-2.75
2022-12-10T05:39:07.557Z,-2.75
2022-12-10T05:41:37.459Z,-2.74
2022-12-10T05:44:04.118Z,-2.73
2022-12-10T05:46:32.446Z,-2.73
2022-12-10T05:49:01.145Z,-2.75
2022-12-10T05:51:30.930Z,-2.79
2022-12-10T05:53:59.802Z,-2.75
2022-12-10T05:56:27.062Z,-2.68
2022-12-10T05:58:59.000Z,-2.72
2022-12-10T06:01:27.939Z,-2.70
2022-12-10T06:03:54.691Z,-2.72
2022-12-10T06:06:26.048Z,-2.70
2022-12-10T06:08:52.828Z,-2.72
2022-12-10T06:11:19.909Z,-2.73
2022-12-10T06:13:50.478Z,-2.71
2022-12-10T06:16:20.017Z,-2.72
2022-12-10T06:18:46.673Z,-2.71
2022-12-10T06:21:15.415Z,-2.71
2022-12-10T06:23:43.009Z,-2.72
2022-12-10T06:26:15.303Z,-2.70
2022-12-10T06:28:42.657Z,-2.75
2022-12-10T06:31:09.279Z,-2.75
2022-12-10T06:33:35.966Z,-2.73
2022-12-10T06:36:08.100Z,-2.70
2022-12-10T06:38:35.545Z,-2.70
2022-12-10T06:41:05.513Z,-2.72
2022-12-10T06:43:32.064Z,-2.71
2022-12-10T06:45:58.683Z,-2.70
2022-12-10T06:48:25.817Z,-2.67
2022-12-10T06:50:52.389Z,-2.60
2022-12-10T06:53:19.614Z,-2.65
2022-12-10T06:55:46.177Z,-2.66
2022-12-10T06:58:12.797Z,-2.65
2022-12-10T07:00:39.425Z,-2.62
2022-12-10T07:03:06.011Z,-2.64
2022-12-10T07:05:32.643Z,-2.62
2022-12-10T07:07:59.306Z,-2.64
2022-12-10T07:10:26.641Z,-2.60
2022-12-10T07:12:53.275Z,-2.61
2022-12-10T07:15:20.643Z,-2.65
2022-12-10T07:17:47.243Z,-2.63
2022-12-10T07:20:13.924Z,-2.64
2022-12-10T07:22:40.538Z,-2.64
2022-12-10T07:25:07.438Z,-2.62
2022-12-10T07:27:34.131Z,-2.61
2022-12-10T07:30:03.671Z,-2.59
2022-12-10T07:32:34.185Z,-2.59
2022-12-10T07:35:17.206Z,-2.57
2022-12-10T07:37:44.211Z,-2.57
2022-12-10T07:40:11.623Z,-2.55
2022-12-10T07:42:38.220Z,-2.54
2022-12-10T07:45:05.195Z,-2.54
2022-12-10T07:47:31.840Z,-2.54
2022-12-10T07:50:00.532Z,-2.53
2022-12-10T07:52:27.122Z,-2.49
2022-12-10T07:54:53.755Z,-2.50
2022-12-10T07:57:20.381Z,-2.45
2022-12-10T07:59:49.506Z,-2.44
2022-12-10T08:02:16.145Z,-2.43
2022-12-10T08:04:42.707Z,-2.42
2022-12-10T08:07:11.000Z,-2.40
2022-12-10T08:09:37.602Z,-2.38
2022-12-10T08:12:05.726Z,-2.38
2022-12-10T08:14:32.406Z,-2.38
2022-12-10T08:16:59.028Z,-2.35
2022-12-10T08:19:31.345Z,-2.32
2022-12-10T08:21:58.375Z,-2.32
2022-12-10T08:24:25.026Z,-2.32
2022-12-10T08:26:51.631Z,-2.29
2022-12-10T08:29:18.182Z,-2.26
2022-12-10T08:31:44.874Z,-2.21
2022-12-10T08:34:16.976Z,-2.16
2022-12-10T08:36:44.170Z,-2.17
2022-12-10T08:39:17.385Z,-2.09
2022-12-10T08:41:45.452Z,-2.09
2022-12-10T08:44:14.986Z,-2.12
2022-12-10T08:46:44.584Z,-2.08
2022-12-10T08:49:13.405Z,-2.00
2022-12-10T08:51:47.510Z,-2.03
2022-12-10T08:54:14.154Z,-2.02
2022-12-10T08:56:43.055Z,-1.98
2022-12-10T08:59:09.719Z,-1.96
2022-12-10T09:01:36.370Z,-1.98
2022-12-10T09:04:03.036Z,-1.96
2022-12-10T09:06:30.146Z,-1.92
2022-12-10T09:08:56.686Z,-1.88
2022-12-10T09:11:32.649Z,-1.85
2022-12-10T09:13:59.618Z,-1.83
2022-12-10T09:16:34.746Z,-1.78
2022-12-10T09:19:01.944Z,-1.83
2022-12-10T09:21:28.923Z,-1.71
2022-12-10T09:23:55.486Z,-1.77
2022-12-10T09:26:22.592Z,-1.81
2022-12-10T09:28:49.937Z,-1.88
2022-12-10T09:31:20.291Z,-1.90
2022-12-10T09:33:49.114Z,-1.78
2022-12-10T09:36:15.853Z,-1.69
2022-12-10T09:38:44.457Z,-1.67
2022-12-10T09:41:32.069Z,-1.66
2022-12-10T09:44:21.001Z,-1.68
2022-12-10T09:46:56.859Z,-1.64
2022-12-10T09:49:38.825Z,-1.59
2022-12-10T09:52:07.340Z,-1.54
2022-12-10T09:54:37.805Z,-1.44
2022-12-10T09:57:06.750Z,-1.44
2022-12-10T09:59:41.933Z,-1.46
2022-12-10T10:02:21.039Z,-1.42
2022-12-10T10:04:49.510Z,-1.50
2022-12-10T10:07:23.095Z,-1.77
2022-12-10T10:09:50.349Z,-1.89
2022-12-10T10:12:24.737Z,-1.84
2022-12-10T10:14:51.349Z,-1.72
2022-12-10T10:17:38.225Z,-1.69
2022-12-10T10:20:05.641Z,-1.67
2022-12-10T10:22:32.565Z,-1.54
2022-12-10T10:25:03.474Z,-1.49
2022-12-10T10:27:34.447Z,-1.45
2022-12-10T10:30:05.984Z,-1.41
2022-12-10T10:32:41.771Z,-1.36
2022-12-10T10:35:11.019Z,-1.47
2022-12-10T10:37:42.762Z,-1.51
2022-12-10T10:40:28.198Z,-1.49
2022-12-10T10:42:56.841Z,-1.45
2022-12-10T10:45:38.495Z,-1.33
2022-12-10T10:48:15.529Z,-1.36
2022-12-10T10:50:45.100Z,-1.29
2022-12-10T10:53:22.541Z,-1.30
2022-12-10T10:55:49.296Z,-1.38
2022-12-10T10:58:19.903Z,-1.33
2022-12-10T11:00:58.481Z,-1.30
2022-12-10T11:03:26.750Z,-1.25
2022-12-10T11:05:55.127Z,-1.27
2022-12-10T11:08:23.989Z,-1.33
2022-12-10T11:11:06.267Z,-1.39
2022-12-10T11:13:36.460Z,-1.34
2022-12-10T11:16:24.371Z,-1.35
2022-12-10T11:19:05.136Z,-1.34
2022-12-10T11:21:33.493Z,-1.35
2022-12-10T11:24:01.332Z,-1.48
2022-12-10T11:26:41.711Z,-1.49
2022-12-10T11:29:39.550Z,-1.37
2022-12-10T11:32:14.201Z,-1.34
2022-12-10T11:34:59.834Z,-1.31
2022-12-10T11:37:49.011Z,-1.29
2022-12-10T11:40:28.205Z,-1.25
2022-12-10T11:43:25.891Z,-1.21
2022-12-10T11:46:19.354Z,-1.25
2022-12-10T11:49:00.058Z,-1.23
2022-12-10T11:51:41.980Z,-1.32
2022-12-10T11:54:46.879Z,-1.39
2022-12-10T11:58:09.299Z,-1.39
2022-12-10T12:00:47.044Z,-1.39
2022-12-10T12:03:30.913Z,-1.28
2022-12-10T12:06:40.855Z,-1.19
2022-12-10T12:09:36.755Z,-1.18
2022-12-10T12:12:15.977Z,-1.23
2022-12-10T12:15:14.974Z,-1.32
2022-12-10T12:17:44.287Z,-1.26
2022-12-10T12:20:26.894Z,-1.30
2022-12-10T12:23:03.801Z,-1.24
2022-12-10T12:25:37.741Z,-1.23
2022-12-10T12:28:07.796Z,-1.33
2022-12-10T12:30:36.120Z,-1.34
2022-12-10T12:33:12.965Z,-1.30
2022-12-10T12:35:39.449Z,-1.26
2022-12-10T12:38:27.949Z,-1.22
2022-12-10T12:41:04.108Z,-1.17
2022-12-10T12:43:36.694Z,-1.14
2022-12-10T12:46:06.435Z,-1.22
2022-12-10T12:48:45.411Z,-1.14
2022-12-10T12:51:33.129Z,-1.06
2022-12-10T12:53:59.859Z,-1.15
2022-12-10T12:57:06.087Z,-1.22
2022-12-10T12:59:56.673Z,-1.18
2022-12-10T13:02:29.492Z,-1.09
2022-12-10T13:04:56.353Z,-1.09
2022-12-10T13:07:22.963Z,-1.02
2022-12-10T13:10:09.562Z,-1.04
2022-12-10T13:12:39.424Z,-1.05
2022-12-10T13:15:16.160Z,-0.96
2022-12-10T13:18:05.227Z,-1.01
2022-12-10T13:20:40.590Z,-1.06
2022-12-10T13:23:25.568Z,-1.00
2022-12-10T13:25:55.883Z,-1.05
2022-12-10T13:28:27.127Z,-1.08
2022-12-10T13:31:17.788Z,-1.10
2022-12-10T13:33:53.122Z,-1.13
2022-12-10T13:36:29.182Z,-1.12
2022-12-10T13:39:37.422Z,-1.15
2022-12-10T13:42:25.617Z,-1.20
2022-12-10T13:45:05.086Z,-1.25
2022-12-10T13:47:37.349Z,-1.23
2022-12-10T13:50:18.304Z,-1.24
2022-12-10T13:52:53.653Z,-1.21
2022-12-10T13:55:35.346Z,-1.17
2022-12-10T13:58:09.599Z,-1.16
2022-12-10T14:00:41.344Z,-1.17
2022-12-10T14:03:29.794Z,-1.25
2022-12-10T14:06:11.740Z,-1.37
2022-12-10T14:08:40.098Z,-1.39
2022-12-10T14:11:14.258Z,-1.34
2022-12-10T14:13:44.024Z,-1.30
2022-12-10T14:16:13.436Z,-1.29
2022-12-10T14:18:42.864Z,-1.42
2022-12-10T14:21:10.033Z,-1.43
2022-12-10T14:23:46.225Z,-1.43
2022-12-10T14:26:19.366Z,-1.49
2022-12-10T14:28:51.732Z,-1.51
2022-12-10T14:31:26.613Z,-1.47
2022-12-10T14:33:54.143Z,-1.43
2022-12-10T14:36:35.938Z,-1.51
2022-12-10T14:39:02.772Z,-1.55
2022-12-10T14:41:36.014Z,-1.66
2022-12-10T14:44:05.928Z,-1.64
2022-12-10T14:46:33.289Z,-1.63
2022-12-10T14:49:00.170Z,-1.61
2022-12-10T14:51:33.702Z,-1.64
2022-12-10T14:54:00.485Z,-1.65
2022-12-10T14:56:31.456Z,-1.65
2022-12-10T14:59:12.822Z,-1.72
2022-12-10T15:01:44.483Z,-1.71
2022-12-10T15:04:19.176Z,-1.73
2022-12-10T15:06:51.470Z,-1.79
2022-12-10T15:09:23.693Z,-1.76
2022-12-10T15:11:57.876Z,-1.77
2022-12-10T15:14:25.461Z,-1.75
2022-12-10T15:16:57.189Z,-1.81
2022-12-10T15:19:33.699Z,-1.87
2022-12-10T15:22:19.014Z,-1.82
2022-12-10T15:24:45.730Z,-1.91
2022-12-10T15:27:18.030Z,-1.94
2022-12-10T15:29:44.735Z,-1.94
2022-12-10T15:32:18.444Z,-1.97
2022-12-10T15:34:48.429Z,-1.99
2022-12-10T15:37:19.452Z,-1.96
2022-12-10T15:39:49.592Z,-1.96
2022-12-10T15:42:42.372Z,-1.99
2022-12-10T15:45:27.816Z,-1.98
2022-12-10T15:48:00.574Z,-2.00
2022-12-10T15:50:27.801Z,-2.04
2022-12-10T15:52:54.480Z,-2.04
2022-12-10T15:55:21.115Z,-2.06
2022-12-10T15:57:50.044Z,-2.04
2022-12-10T16:00:27.468Z,-2.09
2022-12-10T16:02:59.870Z,-2.09
2022-12-10T16:05:35.787Z,-2.10
2022-12-10T16:08:10.769Z,-2.05
2022-12-10T16:10:37.416Z,-2.09
2022-12-10T16:13:12.472Z,-2.10
2022-12-10T16:15:47.000Z,-2.03
2022-12-10T16:18:13.668Z,-2.03
2022-12-10T16:20:40.365Z,-2.02
2022-12-10T16:23:09.275Z,-2.07
2022-12-10T16:25:36.588Z,-2.08
2022-12-10T16:28:03.652Z,-2.10
2022-12-10T16:30:47.967Z,-2.09
2022-12-10T16:33:15.386Z,-2.13
2022-12-10T16:35:42.069Z,-2.15
2022-12-10T16:38:10.992Z,-2.11
2022-12-10T16:40:39.468Z,-2.10
2022-12-10T16:43:06.852Z,-2.09
2022-12-10T16:45:40.024Z,-2.11
2022-12-10T16:48:06.787Z,-2.12
2022-12-10T16:50:34.326Z,-2.13
2022-12-10T16:53:27.242Z,-2.14
2022-12-10T16:55:55.683Z,-2.12
2022-12-10T16:58:22.592Z,-2.12
2022-12-10T17:00:50.916Z,-2.10
2022-12-10T17:03:24.616Z,-2.17
2022-12-10T17:05:54.441Z,-2.17
2022-12-10T17:08:21.904Z,-2.17
2022-12-10T17:11:07.781Z,-2.18
2022-12-10T17:13:35.164Z,-2.19
2022-12-10T17:16:02.254Z,-2.17
2022-12-10T17:18:29.104Z,-2.16
2022-12-10T17:20:55.728Z,-2.17
2022-12-10T17:23:22.848Z,-2.17
2022-12-10T17:25:50.011Z,-2.15
2022-12-10T17:28:22.029Z,-2.21
2022-12-10T17:30:49.779Z,-2.20
2022-12-10T17:33:18.787Z,-2.22
2022-12-10T17:35:46.812Z,-2.21
2022-12-10T17:38:24.662Z,-2.22
2022-12-10T17:40:52.401Z,-2.23
2022-12-10T17:43:19.339Z,-2.25
2022-12-10T17:45:46.516Z,-2.25
2022-12-10T17:48:14.959Z,-2.25
2022-12-10T17:50:44.262Z,-2.25
2022-12-10T17:53:15.223Z,-2.28
2022-12-10T17:55:48.165Z,-2.31
2022-12-10T17:58:15.988Z,-2.31
2022-12-10T18:00:43.590Z,-2.28
2022-12-10T18:03:10.293Z,-2.28
2022-12-10T18:05:36.880Z,-2.27
2022-12-10T18:08:03.793Z,-2.26
2022-12-10T18:10:32.673Z,-2.28
2022-12-10T18:13:00.048Z,-2.27
2022-12-10T18:15:29.871Z,-2.27
2022-12-10T18:17:57.176Z,-2.25
2022-12-10T18:20:33.342Z,-2.22
2022-12-10T18:23:01.199Z,-2.19
2022-12-10T18:25:28.834Z,-2.20
2022-12-10T18:27:57.704Z,-2.18
2022-12-10T18:30:25.671Z,-2.17
2022-12-10T18:32:52.470Z,-2.15
2022-12-10T18:35:19.409Z,-2.20
2022-12-10T18:37:46.083Z,-2.22
2022-12-10T18:40:19.173Z,-2.24
2022-12-10T18:42:47.474Z,-2.23
2022-12-10T18:45:14.770Z,-2.25
2022-12-10T18:47:41.453Z,-2.25
2022-12-10T18:50:19.394Z,-2.28
2022-12-10T18:52:46.039Z,-2.30
2022-12-10T18:55:13.010Z,-2.29
2022-12-10T18:57:44.815Z,-2.25
2022-12-10T19:00:31.278Z,-2.23
2022-12-10T19:02:57.979Z,-2.22
2022-12-10T19:05:25.290Z,-2.20
2022-12-10T19:07:51.921Z,-2.21
2022-12-10T19:10:21.365Z,-2.18
2022-12-10T19:12:48.042Z,-2.16
2022-12-10T19:15:16.760Z,-2.15
2022-12-10T19:17:43.365Z,-2.16
2022-12-10T19:20:18.152Z,-2.16
2022-12-10T19:22:45.495Z,-2.17
2022-12-10T19:25:12.474Z,-2.17
2022-12-10T19:27:39.980Z,-2.16
2022-12-10T19:30:10.640Z,-2.09
2022-12-10T19:32:37.243Z,-2.08
2022-12-10T19:35:04.015Z,-2.08
2022-12-10T19:37:31.497Z,-2.13
2022-12-10T19:39:58.097Z,-2.10
2022-12-10T19:42:24.729Z,-2.11
2022-12-10T19:44:51.310Z,-2.12
2022-12-10T19:47:18.171Z,-2.07
2022-12-10T19:49:44.817Z,-2.09
2022-12-10T19:52:11.489Z,-2.07
2022-12-10T19:54:38.074Z,-2.05
2022-12-10T19:57:04.656Z,-2.04
2022-12-10T19:59:31.374Z,-2.05
2022-12-10T20:01:58.032Z,-2.02
2022-12-10T20:04:24.870Z,-2.02
2022-12-10T20:06:51.524Z,-2.03
2022-12-10T20:09:21.248Z,-2.08
2022-12-10T20:11:48.695Z,-2.08
2022-12-10T20:14:15.656Z,-2.08
2022-12-10T20:16:43.386Z,-2.06
2022-12-10T20:19:11.879Z,-2.06
2022-12-10T20:21:38.567Z,-2.11
2022-12-10T20:24:05.673Z,-2.09
2022-12-10T20:26:36.008Z,-2.09
2022-12-10T20:29:03.455Z,-2.09
2022-12-10T20:31:30.366Z,-2.03
2022-12-10T20:33:57.077Z,-2.05
2022-12-10T20:36:27.697Z,-2.07
2022-12-10T20:38:54.322Z,-2.06
2022-12-10T20:41:21.159Z,-2.06
2022-12-10T20:43:48.450Z,-2.06
2022-12-10T20:46:22.709Z,-2.07
2022-12-10T20:48:50.351Z,-2.10
2022-12-10T20:51:18.663Z,-2.09
2022-12-10T20:53:46.258Z,-2.11
2022-12-10T20:56:21.480Z,-2.07
2022-12-10T20:58:48.969Z,-2.07
2022-12-10T21:01:15.717Z,-2.02
2022-12-10T21:03:42.637Z,-2.00
2022-12-10T21:06:15.708Z,-2.00
2022-12-10T21:08:42.527Z,-1.94
2022-12-10T21:11:09.109Z,-1.96
2022-12-10T21:13:35.881Z,-1.97
2022-12-10T21:16:04.373Z,-1.97
2022-12-10T21:18:31.892Z,-2.02
2022-12-10T21:20:59.988Z,-2.02
2022-12-10T21:23:29.018Z,-2.03
2022-12-10T21:25:56.441Z,-2.00
2022-12-10T21:28:24.033Z,-2.09
2022-12-10T21:30:50.767Z,-2.11
2022-12-10T21:33:19.229Z,-2.07
2022-12-10T21:35:47.247Z,-2.09
2022-12-10T21:38:14.254Z,-2.10
2022-12-10T21:40:42.210Z,-2.12
2022-12-10T21:43:16.777Z,-2.05
2022-12-10T21:46:10.398Z,-2.06
2022-12-10T21:48:37.024Z,-2.04
2022-12-10T21:51:03.748Z,-2.07
2022-12-10T21:53:30.404Z,-2.03
2022-12-10T21:55:57.023Z,-2.02
2022-12-10T21:58:23.871Z,-2.04
2022-12-10T22:00:57.063Z,-2.04
2022-12-10T22:03:24.331Z,-2.05
2022-12-10T22:05:51.059Z,-2.09
2022-12-10T22:08:17.731Z,-2.06
2022-12-10T22:10:49.840Z,-2.07
2022-12-10T22:13:18.549Z,-2.05
2022-12-10T22:15:46.751Z,-2.01
2022-12-10T22:18:14.515Z,-2.00
2022-12-10T22:20:41.576Z,-2.03
2022-12-10T22:23:10.774Z,-2.05
2022-12-10T22:25:40.658Z,-2.03
2022-12-10T22:28:07.298Z,-2.05
2022-12-10T22:30:33.967Z,-2.08
2022-12-10T22:33:00.571Z,-2.07
2022-12-10T22:35:27.213Z,-2.05
2022-12-10T22:37:53.830Z,-2.06
2022-12-10T22:40:21.206Z,-2.05
2022-12-10T22:42:49.806Z,-2.07
2022-12-10T22:45:17.100Z,-2.05
2022-12-10T22:47:43.822Z,-2.06
2022-12-10T22:50:10.569Z,-2.06
2022-12-10T22:52:37.224Z,-2.05
2022-12-10T22:55:04.306Z,-2.05
2022-12-10T22:57:31.155Z,-2.06
2022-12-10T22:59:57.865Z,-2.02
2022-12-10T23:02:24.736Z,-2.03
2022-12-10T23:04:52.442Z,-2.04
2022-12-10T23:07:19.702Z,-2.04
2022-12-10T23:09:46.414Z,-2.04
2022-12-10T23:12:31.863Z,-2.03
2022-12-10T23:14:58.544Z,-1.99
2022-12-10T23:17:25.362Z,-1.98
2022-12-10T23:19:51.941Z,-2.03
2022-12-10T23:22:18.616Z,-1.98
2022-12-10T23:24:45.224Z,-1.99
2022-12-10T23:27:11.781Z,-2.00
2022-12-10T23:29:38.437Z,-2.01
2022-12-10T23:32:05.785Z,-1.99
2022-12-10T23:34:35.984Z,-1.99
2022-12-10T23:37:02.642Z,-1.96
2022-12-10T23:39:29.570Z,-1.99
2022-12-10T23:41:56.306Z,-1.95
2022-12-10T23:44:24.193Z,-1.98
2022-12-10T23:46:50.793Z,-2.00
2022-12-10T23:49:17.447Z,-2.00
2022-12-10T23:51:44.031Z,-2.03
2022-12-10T23:54:10.664Z,-2.03
2022-12-10T23:56:37.449Z,-2.02
2022-12-10T23:59:04.044Z,-2.02
